Time;durP1;ratioP1;P1;durP2;ratioP2;P2;SDS_P1;SDS_P2;PMS_P1;PMS_P2;Temp;Humidity;BMP_temperature;BMP_pressure;BME280_temperature;BME280_humidity;BME280_pressure;Samples;Min_cycle;Max_cycle;Signal;HPM_P1;HPM_P2
2022/07/15 00:00:33;;;;;;;5.95;4.85;;;;;;;17.45;71.12;98745.59;5072402;28;20463;-76
2022/07/15 00:03:01;;;;;;;6.25;5.03;;;;;;;17.40;71.31;98740.53;5072683;28;20509;-76
2022/07/15 00:05:28;;;;;;;6.93;4.72;;;;;;;17.40;71.64;98751.09;5071830;28;20051;-76
2022/07/15 00:07:55;;;;;;;7.00;4.43;;;;;;;17.40;71.69;98751.09;5072530;28;20052;-78
2022/07/15 00:10:24;;;;;;;5.82;5.13;;;;;;;17.25;71.76;98729.75;5072568;28;20399;-78
2022/07/15 00:12:55;;;;;;;5.88;4.97;;;;;;;17.30;72.03;98756.81;5072468;28;20054;-79
2022/07/15 00:15:27;;;;;;;7.47;4.65;;;;;;;17.28;72.18;98745.47;5072953;28;20052;-79
2022/07/15 00:17:57;;;;;;;6.15;4.63;;;;;;;17.30;72.39;98760.31;5072500;28;20060;-77
2022/07/15 00:20:24;;;;;;;7.60;5.00;;;;;;;17.26;72.37;98761.34;5071283;28;20106;-79
2022/07/15 00:22:51;;;;;;;6.30;4.85;;;;;;;17.33;72.46;98772.50;5072202;28;20406;-77
2022/07/15 00:25:18;;;;;;;7.32;5.07;;;;;;;17.28;72.77;98756.00;5072406;28;20059;-76
2022/07/15 00:27:57;;;;;;;5.60;4.85;;;;;;;17.25;72.67;98764.94;5060595;28;20059;-78
2022/07/15 00:30:29;;;;;;;7.18;5.50;;;;;;;17.25;72.91;98764.03;5071501;28;20139;-77
2022/07/15 00:32:57;;;;;;;7.20;4.75;;;;;;;17.20;72.81;98756.31;5032379;28;20538;-76
2022/07/15 00:35:24;;;;;;;5.22;4.40;;;;;;;17.26;72.89;98760.50;5032369;28;20050;-77
2022/07/15 00:37:51;;;;;;;8.07;5.25;;;;;;;17.11;73.11;98736.44;5041665;28;20061;-78
2022/07/15 00:40:19;;;;;;;7.55;5.00;;;;;;;17.24;73.24;98767.63;5052306;28;20056;-78
2022/07/15 00:42:46;;;;;;;9.27;5.68;;;;;;;17.19;73.26;98767.81;5052252;28;20052;-77
2022/07/15 00:45:22;;;;;;;8.88;6.05;;;;;;;17.12;73.54;98759.28;5052021;28;20060;-77
2022/07/15 00:47:52;;;;;;;8.70;5.50;;;;;;;17.10;73.70;98760.25;5050947;28;20426;-77
2022/07/15 00:50:20;;;;;;;;;;;;;;;16.90;73.70;98774.25;5051444;28;20582;-77
2022/07/15 00:52:56;;;;;;;10.00;5.97;;;;;;;16.88;74.11;98761.13;5052292;28;19932;-78
2022/07/15 00:55:24;;;;;;;9.70;6.20;;;;;;;16.89;74.56;98757.56;5052354;28;20057;-77
2022/07/15 00:57:56;;;;;;;9.40;6.80;;;;;;;16.99;74.43;98760.69;5052304;28;20068;-76
2022/07/15 01:00:24;;;;;;;9.27;6.88;;;;;;;17.03;74.56;98782.53;5052230;28;20048;-77
2022/07/15 01:02:52;;;;;;;9.23;6.70;;;;;;;17.01;74.47;98779.94;5052771;28;20053;-78
2022/07/15 01:05:21;;;;;;;8.13;6.82;;;;;;;17.03;74.65;98788.66;5060568;28;20064;-77
2022/07/15 01:07:51;;;;;;;9.20;6.83;;;;;;;17.01;74.66;98789.66;5061698;28;20418;-77
2022/07/15 01:10:21;;;;;;;11.30;7.13;;;;;;;17.01;74.81;98782.59;5091421;28;20076;-77
2022/07/15 01:12:49;;;;;;;11.18;7.10;;;;;;;16.96;74.95;98780.13;5058227;28;20605;-78
2022/07/15 01:15:23;;;;;;;9.48;6.40;;;;;;;16.92;74.87;98765.34;5054479;28;20064;-78
2022/07/15 01:17:50;;;;;;;9.32;6.35;;;;;;;16.97;74.92;98794.19;5055569;28;20049;-77
2022/07/15 01:20:17;;;;;;;11.02;6.90;;;;;;;16.98;75.04;98788.00;5054099;28;20059;-77
2022/07/15 01:22:54;;;;;;;11.02;5.93;;;;;;;16.87;74.95;98761.19;5053512;28;20072;-77
2022/07/15 01:25:26;;;;;;;9.25;6.50;;;;;;;16.96;74.75;98785.41;5068357;28;20144;-77
2022/07/15 01:27:54;;;;;;;10.05;6.55;;;;;;;16.97;75.08;98775.72;5059034;28;20052;-77
2022/07/15 01:30:24;;;;;;;10.63;6.57;;;;;;;16.91;74.83;98771.56;5074348;28;20083;-76
2022/07/15 01:32:52;;;;;;;9.90;6.38;;;;;;;16.99;74.90;98792.34;5075391;28;20099;-77
2022/07/15 01:35:19;;;;;;;10.85;6.50;;;;;;;16.94;75.00;98789.03;5055752;28;20056;-77
2022/07/15 01:37:48;;;;;;;9.35;6.53;;;;;;;16.93;75.01;98787.34;5054116;28;20053;-78
2022/07/15 01:40:16;;;;;;;7.60;6.07;;;;;;;16.85;74.96;98790.25;5053869;28;20048;-77
2022/07/15 01:42:44;;;;;;;8.45;5.80;;;;;;;16.81;75.05;98769.34;5087373;28;20049;-77
2022/07/15 01:45:14;;;;;;;9.15;6.22;;;;;;;16.99;74.83;98795.88;5053427;28;20068;-78
2022/07/15 01:47:46;;;;;;;7.28;6.18;;;;;;;17.02;74.79;98800.16;5053859;28;20056;-77
2022/07/15 01:50:22;;;;;;;6.90;6.05;;;;;;;16.95;74.63;98783.72;5053657;28;20052;-77
2022/07/15 01:52:53;;;;;;;9.15;6.20;;;;;;;17.02;74.64;98789.59;5064142;28;20052;-79
2022/07/15 01:55:21;;;;;;;8.57;5.97;;;;;;;17.17;74.41;98810.09;5073951;28;20052;-77
2022/07/15 01:57:48;;;;;;;9.05;6.07;;;;;;;17.27;74.00;98815.88;5074786;28;20112;-77
2022/07/15 02:00:17;;;;;;;12.10;6.25;;;;;;;17.42;73.59;98824.91;5072745;28;20106;-77
2022/07/15 02:02:45;;;;;;;8.57;6.15;;;;;;;17.62;73.06;98824.09;5034234;28;20053;-76
2022/07/15 02:05:15;;;;;;;8.23;5.85;;;;;;;17.88;72.09;98824.81;5016693;28;20537;-77
2022/07/15 02:07:44;;;;;;;7.63;5.63;;;;;;;18.20;70.94;98812.84;5035015;28;20049;-76
2022/07/15 02:10:13;;;;;;;11.18;6.10;;;;;;;18.38;70.16;98795.28;5066490;28;20059;-78
2022/07/15 02:12:48;;;;;;;10.32;5.80;;;;;;;18.59;69.39;98809.31;5034048;28;20053;-77
2022/07/15 02:15:19;;;;;;;7.85;5.25;;;;;;;18.82;68.25;98826.78;5033314;28;20076;-77
2022/07/15 02:17:51;;;;;;;6.57;5.00;;;;;;;18.96;68.15;98828.78;5066656;28;20514;-78
2022/07/15 02:20:23;;;;;;;10.00;4.80;;;;;;;19.49;65.87;98813.88;5033300;28;20576;-76
2022/07/15 02:22:53;;;;;;;5.75;4.53;;;;;;;19.98;63.64;98812.28;5068962;28;20060;-77
2022/07/15 02:25:20;;;;;;;8.63;4.90;;;;;;;19.50;64.50;98791.75;5032977;28;20049;-77
2022/07/15 02:27:47;;;;;;;5.72;4.70;;;;;;;19.15;65.53;98787.28;5034586;28;20148;-78
2022/07/15 02:30:14;;;;;;;8.95;4.60;;;;;;;19.07;66.16;98823.00;5034218;28;20061;-78
2022/07/15 02:32:41;;;;;;;9.43;4.93;;;;;;;19.00;66.29;98802.09;5033178;28;20065;-77
2022/07/15 02:35:09;;;;;;;7.57;4.75;;;;;;;19.72;64.73;98818.06;5032856;28;20049;-77
2022/07/15 02:37:36;;;;;;;6.18;4.10;;;;;;;21.57;58.67;98822.22;5034097;28;20050;-77
2022/07/15 02:40:03;;;;;;;12.13;4.60;;;;;;;21.33;58.96;98832.44;5066037;28;20050;-77
2022/07/15 02:42:32;;;;;;;6.82;4.15;;;;;;;21.01;59.70;98822.69;5032807;28;20077;-78
2022/07/15 02:45:03;;;;;;;5.45;3.92;;;;;;;23.25;54.09;98810.13;5065536;28;20065;-78
2022/07/15 02:47:30;;;;;;;7.43;3.92;;;;;;;26.23;46.61;98818.34;5086169;28;20059;-76
2022/07/15 02:49:57;;;;;;;5.60;4.03;;;;;;;27.62;43.34;98813.47;5054000;28;20049;-77
2022/07/15 02:52:26;;;;;;;5.63;3.90;;;;;;;26.68;44.59;98820.22;5068764;28;20057;-78
2022/07/15 02:54:53;;;;;;;3.92;3.53;;;;;;;25.05;47.75;98821.81;5052565;28;20051;-77
2022/07/15 02:57:20;;;;;;;5.78;3.70;;;;;;;24.08;50.53;98818.81;5033342;28;20568;-78
2022/07/15 02:59:48;;;;;;;5.97;3.90;;;;;;;24.93;48.67;98818.25;5032585;28;20053;-77
2022/07/15 03:02:15;;;;;;;5.18;3.60;;;;;;;25.86;46.13;98789.03;5033536;28;20565;-76
2022/07/15 03:04:42;;;;;;;9.15;3.60;;;;;;;28.00;41.33;98797.81;5065367;28;20060;-78
2022/07/15 03:07:10;;;;;;;4.47;3.33;;;;;;;29.29;38.62;98805.28;5082509;28;20055;-78
2022/07/15 03:09:38;;;;;;;5.32;3.60;;;;;;;30.33;36.91;98801.00;5045894;28;20053;-79
2022/07/15 03:12:05;;;;;;;4.78;3.42;;;;;;;31.16;35.22;98808.28;5033340;28;20080;-78
2022/07/15 03:14:33;;;;;;;3.97;3.35;;;;;;;32.08;33.25;98819.81;5032358;28;20132;-78
2022/07/15 03:17:00;;;;;;;6.78;3.45;;;;;;;32.28;32.86;98813.19;5046892;28;20048;-78
2022/07/15 03:19:27;;;;;;;5.63;3.05;;;;;;;33.17;31.37;98824.63;5084703;28;20053;-78
2022/07/15 03:21:55;;;;;;;5.28;3.28;;;;;;;32.71;32.26;98824.09;5084473;28;20052;-79
2022/07/15 03:24:24;;;;;;;5.10;3.40;;;;;;;32.33;32.31;98819.00;5051398;28;20144;-78
2022/07/15 03:26:55;;;;;;;4.78;3.28;;;;;;;33.58;30.74;98812.06;5038545;28;20053;-77
2022/07/15 03:29:22;;;;;;;4.28;3.05;;;;;;;34.86;28.94;98823.09;5034299;28;20064;-77
2022/07/15 03:31:52;;;;;;;9.00;3.47;;;;;;;36.18;26.97;98835.88;5057661;28;20052;-77
2022/07/15 03:34:26;;;;;;;7.13;3.17;;;;;;;37.14;25.60;98828.69;5064779;28;20056;-77
2022/07/15 03:36:54;;;;;;;5.13;3.03;;;;;;;37.66;24.99;98838.50;5073038;28;20052;-77
2022/07/15 03:39:22;;;;;;;4.20;3.17;;;;;;;38.23;24.10;98831.28;5052272;28;20055;-77
2022/07/15 03:41:49;;;;;;;7.32;3.22;;;;;;;38.77;23.34;98839.84;5051692;28;20049;-77
2022/07/15 03:44:17;;;;;;;4.35;2.65;;;;;;;36.57;26.06;98845.66;5052478;28;20049;-77
2022/07/15 03:46:45;;;;;;;9.68;3.33;;;;;;;34.01;29.43;98852.53;5084819;28;20528;-77
2022/07/15 03:49:14;;;;;;;6.35;3.20;;;;;;;32.66;31.65;98846.22;5051505;28;20055;-78
2022/07/15 03:51:43;;;;;;;7.70;3.40;;;;;;;31.60;33.33;98841.66;5051919;28;20571;-76
2022/07/15 03:54:12;;;;;;;3.65;3.10;;;;;;;33.15;30.69;98846.47;5051524;28;20118;-78
2022/07/15 03:56:47;;;;;;;6.05;3.20;;;;;;;34.17;29.40;98844.44;5068680;28;20512;-76
2022/07/15 03:59:16;;;;;;;5.50;3.33;;;;;;;34.73;28.41;98846.38;5051247;28;20445;-76
2022/07/15 04:01:43;;;;;;;8.90;3.38;;;;;;;33.22;30.41;98841.25;5052069;28;20407;-78
2022/07/15 04:04:10;;;;;;;3.95;3.03;;;;;;;30.49;34.72;98832.69;5052326;28;20135;-77
2022/07/15 04:06:37;;;;;;;3.97;2.85;;;;;;;28.43;38.33;98829.00;5052652;28;20049;-77
2022/07/15 04:09:04;;;;;;;5.68;3.53;;;;;;;29.13;38.00;98849.69;5051181;28;20099;-78
2022/07/15 04:11:31;;;;;;;7.20;2.97;;;;;;;30.47;35.63;98848.16;5051209;28;20048;-78
2022/07/15 04:13:59;;;;;;;4.53;2.85;;;;;;;29.58;37.03;98848.34;5085567;28;20061;-78
2022/07/15 04:16:26;;;;;;;4.38;2.90;;;;;;;28.71;38.45;98835.50;5051239;28;20056;-79
2022/07/15 04:18:55;;;;;;;;;;;;;;;27.67;40.26;98859.50;5085064;28;20453;-81
2022/07/15 04:21:25;;;;;;;4.35;3.00;;;;;;;27.19;41.65;98865.25;5050638;28;19925;-80
2022/07/15 04:23:52;;;;;;;4.47;3.00;;;;;;;26.53;43.43;98884.69;5084835;28;20104;-81
2022/07/15 04:26:19;;;;;;;9.27;3.08;;;;;;;26.15;44.55;98888.50;5052113;28;20052;-82
2022/07/15 04:28:47;;;;;;;3.50;3.17;;;;;;;25.69;45.18;98861.69;5054347;28;20053;-81
2022/07/15 04:31:16;;;;;;;5.20;3.10;;;;;;;25.49;45.19;98882.75;5037710;28;20057;-81
2022/07/15 04:33:54;;;;;;;4.82;2.90;;;;;;;25.17;46.11;98900.22;5030854;28;20057;-82
2022/07/15 04:36:22;;;;;;;3.30;2.70;;;;;;;24.90;46.37;98858.50;5030645;28;20053;-80
2022/07/15 04:38:50;;;;;;;4.32;2.83;;;;;;;25.01;46.69;98887.13;5048101;28;20168;-81
2022/07/15 04:41:17;;;;;;;7.50;3.10;;;;;;;25.02;46.27;98888.84;5064378;28;20049;-79
2022/07/15 04:43:45;;;;;;;4.65;2.80;;;;;;;25.09;45.74;98893.63;5034241;28;20057;-80
2022/07/15 04:46:14;;;;;;;7.15;3.13;;;;;;;25.17;45.69;98894.88;5067895;28;20082;-80
2022/07/15 04:51:31;;;;;;;5.38;3.20;;;;;;;25.30;45.34;98914.44;5035007;28;20280;-81
2022/07/15 04:53:59;;;;;;;5.28;2.90;;;;;;;25.44;44.88;98916.13;5035028;28;20080;-78
2022/07/15 04:56:36;;;;;;;12.50;3.08;;;;;;;25.79;43.89;98908.19;5069064;28;20054;-82
2022/07/15 04:59:05;;;;;;;7.15;2.70;;;;;;;25.35;44.61;98898.94;5035023;28;20091;-79
2022/07/15 05:01:32;;;;;;;3.35;2.78;;;;;;;24.83;45.94;98924.00;5036152;28;20072;-80
2022/07/15 05:03:59;;;;;;;5.30;2.83;;;;;;;24.35;46.95;98911.25;5041299;28;20060;-76
2022/07/15 05:06:26;;;;;;;6.90;2.80;;;;;;;24.46;47.43;98923.88;5076257;28;20052;-79
2022/07/15 05:08:53;;;;;;;10.15;2.80;;;;;;;25.01;45.91;98929.84;5056856;28;20124;-80
2022/07/15 05:11:21;;;;;;;2.35;2.15;;;;;;;25.39;45.08;98919.13;5057618;28;20049;-79
2022/07/15 05:13:48;;;;;;;3.20;2.30;;;;;;;25.46;44.57;98920.38;5067862;28;20072;-78
2022/07/15 05:16:16;;;;;;;5.28;2.40;;;;;;;25.43;44.42;98917.94;5067644;28;20060;-78
2022/07/15 05:18:44;;;;;;;3.33;2.40;;;;;;;25.40;44.39;98911.94;5035602;28;20084;-80
2022/07/15 05:21:16;;;;;;;5.75;2.65;;;;;;;25.37;44.38;98942.44;5033154;28;20115;-79
2022/07/15 05:23:51;;;;;;;6.80;2.30;;;;;;;25.07;44.44;98961.50;5066646;28;20076;-79
2022/07/15 05:26:38;;;;;;;5.53;2.42;;;;;;;24.62;46.01;98955.72;5066881;28;20045;-80
2022/07/15 05:29:13;;;;;;;3.90;2.08;;;;;;;24.44;44.92;98956.00;5017680;28;20168;-77
2022/07/15 05:31:41;;;;;;;2.28;1.90;;;;;;;24.43;44.56;98938.25;5051216;28;20050;-79
2022/07/15 05:34:09;;;;;;;6.18;2.00;;;;;;;24.55;44.69;98923.25;5067456;28;20045;-80
2022/07/15 05:36:36;;;;;;;2.70;1.75;;;;;;;24.57;44.62;98928.50;5050370;28;20050;-77
2022/07/15 05:39:05;;;;;;;2.50;1.77;;;;;;;24.48;44.83;98913.94;5066980;28;20548;-80
2022/07/15 05:41:33;;;;;;;3.58;2.03;;;;;;;24.57;44.51;98909.81;5066671;28;20053;-80
2022/07/15 05:44:01;;;;;;;4.32;1.92;;;;;;;24.69;44.07;98924.97;5065630;28;20057;-80
2022/07/15 05:46:29;;;;;;;4.30;2.00;;;;;;;24.63;43.88;98909.38;5032646;28;20248;-80
2022/07/15 05:49:01;;;;;;;5.22;2.13;;;;;;;24.59;44.22;98923.91;5066881;28;20567;-81
2022/07/15 05:51:28;;;;;;;4.72;1.73;;;;;;;24.71;44.44;98920.38;5050169;28;20103;-80
2022/07/15 05:53:58;;;;;;;3.20;2.13;;;;;;;24.72;43.74;98916.75;5032793;28;20168;-79
2022/07/15 05:56:26;;;;;;;3.05;1.50;;;;;;;24.58;43.78;98915.03;5066881;28;20053;-79
2022/07/15 05:58:52;;;;;;;3.28;1.42;;;;;;;24.43;43.98;98890.22;5034628;28;20068;-79
2022/07/15 06:01:25;;;;;;;2.90;1.63;;;;;;;24.60;43.54;98915.78;5066685;28;20053;-79
2022/07/15 06:03:53;;;;;;;2.20;1.60;;;;;;;24.71;42.89;98921.22;5067030;28;20053;-79
2022/07/15 06:06:20;;;;;;;3.80;1.58;;;;;;;24.69;42.61;98919.63;5033050;28;20128;-81
2022/07/15 06:08:48;;;;;;;2.67;1.70;;;;;;;24.74;42.65;98936.19;5066260;28;20418;-79
2022/07/15 06:11:15;;;;;;;2.83;1.80;;;;;;;24.68;42.55;98925.94;5034241;28;20059;-80
2022/07/15 06:13:44;;;;;;;2.85;1.45;;;;;;;24.47;42.29;98914.88;5033469;28;20104;-80
2022/07/15 06:16:11;;;;;;;3.30;1.50;;;;;;;24.52;42.67;98926.13;5033251;28;20050;-79
2022/07/15 06:18:38;;;;;;;3.03;1.63;;;;;;;24.53;43.25;98926.03;5034267;28;20100;-78
2022/07/15 06:21:05;;;;;;;3.90;1.52;;;;;;;24.62;42.96;98924.53;5033029;28;20103;-81
2022/07/15 06:23:33;;;;;;;2.88;1.60;;;;;;;24.81;42.72;98908.09;5032624;28;20065;-80
2022/07/15 06:26:00;;;;;;;3.17;1.83;;;;;;;24.91;43.07;98917.16;5049557;28;20103;-80
2022/07/15 06:28:27;;;;;;;4.07;1.60;;;;;;;24.97;43.18;98912.34;5032787;28;20053;-80
2022/07/15 06:30:54;;;;;;;3.45;1.80;;;;;;;25.10;42.67;98914.03;5032742;28;20503;-82
2022/07/15 06:33:24;;;;;;;4.25;1.65;;;;;;;25.14;43.32;98920.88;5034063;28;20083;-79
2022/07/15 06:35:50;;;;;;;3.60;1.58;;;;;;;25.32;42.80;98926.75;5066621;28;20049;-80
2022/07/15 06:38:17;;;;;;;3.85;1.77;;;;;;;25.48;42.25;98913.09;5033896;28;20080;-83
2022/07/15 06:40:45;;;;;;;1.70;1.50;;;;;;;25.51;41.94;98922.72;5016217;28;20080;-82
2022/07/15 06:43:11;;;;;;;3.45;1.90;;;;;;;25.62;42.00;98925.47;5033974;28;20085;-80
2022/07/15 06:45:55;;;;;;;3.53;2.65;;;;;;;25.70;41.86;98925.72;5065549;28;20068;-81
2022/07/15 06:48:22;;;;;;;2.83;2.03;;;;;;;25.86;41.70;98922.78;5065749;28;20049;-80
2022/07/15 06:50:49;;;;;;;3.20;1.90;;;;;;;25.74;41.23;98931.72;5065562;28;20504;-80
2022/07/15 06:53:16;;;;;;;2.50;1.75;;;;;;;25.60;41.10;98921.19;5033667;28;20077;-81
2022/07/15 06:55:43;;;;;;;4.72;2.13;;;;;;;25.63;41.35;98918.28;5033727;28;20130;-80
2022/07/15 06:58:14;;;;;;;5.00;2.00;;;;;;;25.64;40.86;98918.19;5033671;28;20076;-80
2022/07/15 07:00:41;;;;;;;6.85;1.73;;;;;;;25.50;40.93;98921.84;5033109;28;20462;-80
2022/07/15 07:03:08;;;;;;;5.90;2.22;;;;;;;25.40;40.57;98925.31;5033433;28;20049;-80
2022/07/15 07:05:35;;;;;;;1.67;1.38;;;;;;;25.36;41.16;98929.19;5015453;28;20054;-81
2022/07/15 07:08:03;;;;;;;7.50;2.33;;;;;;;25.13;41.55;98935.19;5065516;28;20057;-80
2022/07/15 07:10:31;;;;;;;2.53;1.83;;;;;;;25.08;41.58;98936.47;5032038;28;20053;-80
2022/07/15 07:12:58;;;;;;;4.72;1.77;;;;;;;25.18;42.14;98950.88;5065553;28;20049;-81
2022/07/15 07:15:25;;;;;;;5.65;2.17;;;;;;;25.10;41.72;98954.13;5033010;28;20057;-80
2022/07/15 07:17:52;;;;;;;4.35;1.90;;;;;;;25.30;42.46;98951.88;5033180;28;20056;-82
2022/07/15 07:20:19;;;;;;;7.47;2.10;;;;;;;25.52;42.01;98935.97;5032955;28;20046;-81
2022/07/15 07:22:46;;;;;;;3.53;1.90;;;;;;;25.42;42.49;98950.97;5065019;28;20192;-82
2022/07/15 07:25:13;;;;;;;5.20;2.10;;;;;;;25.55;42.31;98964.28;5032448;28;20564;-81
2022/07/15 07:27:40;;;;;;;5.97;2.22;;;;;;;25.89;42.01;98956.50;5032062;28;20041;-82
2022/07/15 07:30:08;;;;;;;5.85;3.35;;;;;;;26.41;40.88;98957.06;5031888;28;20578;-79
2022/07/15 07:32:35;;;;;;;16.40;2.83;;;;;;;26.35;40.65;98958.41;5031691;28;20099;-81
2022/07/15 07:35:06;;;;;;;4.20;2.40;;;;;;;26.46;40.67;98962.94;5033020;28;20061;-81
2022/07/15 07:37:38;;;;;;;4.55;2.47;;;;;;;26.42;40.84;98972.19;5032842;28;20442;-80
2022/07/15 07:40:07;;;;;;;6.07;2.33;;;;;;;26.21;40.16;98953.25;5032999;28;20056;-80
2022/07/15 07:42:34;;;;;;;11.52;2.55;;;;;;;26.15;40.54;98966.09;5033019;28;20515;-82
2022/07/15 07:45:03;;;;;;;5.43;2.63;;;;;;;26.61;39.84;98982.34;5032908;28;20123;-81
2022/07/15 07:47:33;;;;;;;10.63;2.95;;;;;;;26.66;39.14;98981.03;5032253;28;20399;-80
2022/07/15 07:50:00;;;;;;;4.13;2.20;;;;;;;26.36;39.74;98981.53;5032934;28;20053;-81
2022/07/15 07:52:28;;;;;;;2.65;2.20;;;;;;;26.34;39.45;98978.09;5032684;28;20053;-80
2022/07/15 07:54:55;;;;;;;3.55;1.98;;;;;;;26.45;39.26;98990.69;5032944;28;20128;-79
2022/07/15 07:57:22;;;;;;;3.88;2.50;;;;;;;26.33;39.73;98973.75;5031964;28;20557;-79
2022/07/15 07:59:49;;;;;;;3.97;2.80;;;;;;;26.33;39.56;98995.16;5032627;28;20128;-80
2022/07/15 08:02:20;;;;;;;3.72;2.65;;;;;;;26.57;39.73;98986.25;5032692;28;20053;-79
2022/07/15 08:04:48;;;;;;;3.58;2.50;;;;;;;26.84;39.40;98981.41;5032486;28;20073;-82
2022/07/15 08:07:15;;;;;;;9.35;3.55;;;;;;;26.92;39.25;98981.69;5032763;28;20057;-81
2022/07/15 08:09:42;;;;;;;7.00;2.92;;;;;;;26.72;38.77;98977.88;5032383;28;20085;-79
2022/07/15 08:12:09;;;;;;;4.53;2.55;;;;;;;26.63;39.33;98981.28;5031399;28;20053;-79
2022/07/15 08:14:36;;;;;;;5.35;2.53;;;;;;;26.66;38.61;98981.03;5032401;28;20057;-82
2022/07/15 08:17:03;;;;;;;3.85;2.38;;;;;;;26.55;38.93;98964.91;5032762;28;20049;-81
2022/07/15 08:19:30;;;;;;;9.18;2.67;;;;;;;26.45;39.25;98970.09;5036086;28;20404;-80
2022/07/15 08:21:57;;;;;;;8.70;4.57;;;;;;;26.14;39.93;98974.28;5036550;28;20063;-81
2022/07/15 08:24:24;;;;;;;4.60;2.83;;;;;;;26.39;38.63;98981.28;5036422;28;20057;-80
2022/07/15 08:26:51;;;;;;;7.05;2.78;;;;;;;26.72;38.03;98977.88;5036315;28;20106;-82
2022/07/15 08:29:18;;;;;;;8.65;4.40;;;;;;;26.88;37.26;98963.28;5036150;28;20053;-79
2022/07/15 08:31:46;;;;;;;9.80;4.88;;;;;;;26.82;37.29;98963.75;5036407;28;20061;-79
2022/07/15 08:34:13;;;;;;;4.70;3.00;;;;;;;26.82;37.62;98963.75;5036276;28;20053;-81
2022/07/15 08:36:40;;;;;;;6.07;2.72;;;;;;;26.63;38.54;98949.16;5036106;28;20506;-79
2022/07/15 08:39:07;;;;;;;5.65;3.55;;;;;;;26.57;38.08;98964.84;5035831;28;20176;-80
2022/07/15 08:41:36;;;;;;;4.28;3.08;;;;;;;26.25;38.13;98965.44;5067741;28;20084;-79
2022/07/15 08:44:05;;;;;;;7.28;3.80;;;;;;;26.12;38.74;98970.84;5036225;28;20144;-79
2022/07/15 08:46:34;;;;;;;7.50;3.25;;;;;;;26.26;38.06;98981.34;5036214;28;20057;-81
2022/07/15 08:49:16;;;;;;;5.45;3.17;;;;;;;26.32;38.09;98996.09;5035954;28;20057;-80
2022/07/15 08:51:46;;;;;;;4.38;2.83;;;;;;;26.86;37.38;99006.25;5036184;28;20056;-79
2022/07/15 08:54:13;;;;;;;;;;;;;;;26.76;37.77;99007.97;5036495;28;20111;-81
2022/07/15 08:56:45;;;;;;;4.75;3.45;;;;;;;26.74;37.12;99017.94;5067846;28;19925;-78
2022/07/15 08:59:13;;;;;;;8.93;6.05;;;;;;;26.61;37.11;99019.84;5067946;28;20140;-80
2022/07/15 09:01:48;;;;;;;8.45;3.30;;;;;;;26.62;37.21;99006.34;5035873;28;20057;-79
2022/07/15 09:04:16;;;;;;;4.32;2.85;;;;;;;26.94;36.67;99014.56;5077329;28;20080;-81
2022/07/15 09:06:46;;;;;;;3.22;2.60;;;;;;;27.00;36.78;99007.03;5044466;28;20057;-80
2022/07/15 09:09:32;;;;;;;4.07;2.67;;;;;;;27.25;35.75;99009.50;5042996;28;20102;-81
2022/07/15 09:12:08;;;;;;;5.72;2.30;;;;;;;27.18;36.11;99008.25;5037313;28;20059;-79
2022/07/15 09:14:44;;;;;;;3.08;2.50;;;;;;;27.10;35.92;99019.59;5035703;28;20104;-82
2022/07/15 09:17:12;;;;;;;7.00;2.38;;;;;;;27.16;36.13;99010.19;5035708;28;20087;-81
2022/07/15 09:19:59;;;;;;;5.82;2.38;;;;;;;26.99;36.74;99024.06;5035368;28;20506;-81
2022/07/15 09:22:30;;;;;;;3.92;2.78;;;;;;;26.85;35.99;99027.84;5035335;28;20053;-81
2022/07/15 09:25:08;;;;;;;8.57;3.28;;;;;;;26.52;36.02;98997.25;5035262;28;20057;-81
2022/07/15 09:27:40;;;;;;;5.00;2.58;;;;;;;26.63;35.36;99024.13;5035118;28;20049;-80
2022/07/15 09:36:27;;;;;;;5.03;2.75;;;;;;;26.25;36.60;99029.66;5035224;28;20053;-79
2022/07/15 09:38:58;;;;;;;11.00;2.88;;;;;;;26.47;36.34;99024.38;5034336;28;20132;-80
2022/07/15 09:41:26;;;;;;;;;;;;;;;26.34;36.44;99027.13;5034064;28;20055;-79
2022/07/15 09:43:57;;;;;;;4.30;2.60;;;;;;;26.53;34.94;99031.13;5066803;28;20382;-81
2022/07/15 09:46:28;;;;;;;3.92;2.75;;;;;;;26.28;35.38;99018.72;5033593;28;20395;-80
2022/07/15 09:48:55;;;;;;;3.05;2.50;;;;;;;25.95;35.71;99015.75;5034976;28;20053;-79
2022/07/15 09:51:23;;;;;;;5.05;2.13;;;;;;;25.87;35.72;99003.88;5034854;28;20061;-79
2022/07/15 09:53:51;;;;;;;9.65;2.80;;;;;;;25.97;35.76;99012.97;5034962;28;20057;-79
2022/07/15 09:56:22;;;;;;;3.33;2.40;;;;;;;25.97;35.50;99004.94;5034800;28;20057;-79
2022/07/15 09:58:51;;;;;;;2.40;2.20;;;;;;;26.01;35.61;99017.13;5034599;28;20061;-79
2022/07/15 10:01:18;;;;;;;3.15;2.50;;;;;;;25.99;36.26;99024.44;5034945;28;20045;-79
2022/07/15 10:03:45;;;;;;;5.68;2.70;;;;;;;26.16;35.91;99015.16;5034441;28;20091;-79
2022/07/15 10:06:14;;;;;;;4.40;2.35;;;;;;;26.56;35.87;99014.84;5066182;28;20481;-81
2022/07/15 10:08:47;;;;;;;5.35;2.35;;;;;;;26.61;35.07;99015.38;5034484;28;20136;-79
2022/07/15 10:11:14;;;;;;;5.63;2.50;;;;;;;26.52;34.38;99014.22;5034994;28;20479;-79
2022/07/15 10:14:03;;;;;;;3.33;2.40;;;;;;;26.48;34.57;99010.06;5034395;28;20053;-79
2022/07/15 10:16:42;;;;;;;2.85;2.20;;;;;;;26.52;34.78;99005.28;5066385;28;20549;-83
2022/07/15 10:19:19;;;;;;;8.57;2.33;;;;;;;26.58;34.61;99010.22;5034601;28;20054;-80
2022/07/15 10:22:11;;;;;;;5.68;2.22;;;;;;;26.15;35.50;99008.06;5033019;28;20510;-78
2022/07/15 10:24:59;;;;;;;6.53;2.22;;;;;;;26.33;35.06;99014.75;5033999;28;20144;-78
2022/07/15 10:27:36;;;;;;;4.20;2.00;;;;;;;26.23;34.36;99010.19;5034189;28;20112;-77
2022/07/15 10:30:06;;;;;;;5.07;2.25;;;;;;;26.32;34.45;99023.72;5033131;28;20053;-77
2022/07/15 10:33:13;;;;;;;5.15;2.30;;;;;;;26.29;33.46;99023.13;5033936;28;20057;-80
2022/07/15 10:35:50;;;;;;;2.30;2.20;;;;;;;26.31;33.99;99037.25;5065731;28;20139;-78
2022/07/15 10:38:28;;;;;;;6.70;3.10;;;;;;;26.34;34.27;99037.00;5034080;28;20045;-78
2022/07/15 10:41:21;;;;;;;3.42;2.53;;;;;;;26.44;34.16;99037.19;5033496;28;20488;-80
2022/07/15 10:43:51;;;;;;;4.53;2.97;;;;;;;26.44;34.13;99032.66;5033643;28;20053;-78
2022/07/15 10:46:18;;;;;;;5.22;3.40;;;;;;;26.65;32.91;99037.38;5033982;28;20096;-79
2022/07/15 10:48:46;;;;;;;3.33;3.00;;;;;;;26.93;32.61;99037.00;5033532;28;20059;-79
2022/07/15 10:51:36;;;;;;;4.38;2.78;;;;;;;27.04;32.06;99032.59;5033855;28;20057;-80
2022/07/15 10:54:06;;;;;;;8.00;2.28;;;;;;;27.15;31.35;99044.19;5034154;28;20190;-81
2022/07/15 10:56:40;;;;;;;6.60;2.65;;;;;;;27.27;31.06;99042.41;5033532;28;20507;-82
2022/07/15 10:59:24;;;;;;;2.78;2.00;;;;;;;27.39;31.25;99026.34;5033578;28;20054;-81
2022/07/15 11:01:58;;;;;;;3.20;1.80;;;;;;;27.47;30.48;99040.84;5033234;28;20502;-81
2022/07/15 11:04:31;;;;;;;7.60;2.22;;;;;;;27.51;30.34;99028.03;5033773;28;20578;-82
2022/07/15 11:07:06;;;;;;;5.15;2.20;;;;;;;27.52;30.53;99019.03;5033687;28;20057;-81
2022/07/15 11:09:54;;;;;;;2.08;1.88;;;;;;;27.32;31.03;99036.72;5033301;28;20077;-80
2022/07/15 11:12:28;;;;;;;3.20;2.83;;;;;;;27.40;31.00;99028.03;5033477;28;20079;-79
2022/07/15 11:15:02;;;;;;;7.72;3.10;;;;;;;27.30;31.31;99028.78;5033341;28;20296;-78
2022/07/15 11:17:30;;;;;;;6.47;4.45;;;;;;;27.29;31.55;99036.94;5033315;28;20127;-78
2022/07/15 11:20:28;;;;;;;6.90;4.30;;;;;;;27.15;31.64;99035.31;5033540;28;20088;-80
2022/07/15 11:22:57;;;;;;;10.32;5.30;;;;;;;27.23;31.92;99040.09;5033107;28;20049;-79
2022/07/15 11:25:32;;;;;;;5.75;3.10;;;;;;;27.17;32.20;99039.56;5033189;28;20062;-79
2022/07/15 11:28:14;;;;;;;4.05;2.78;;;;;;;27.58;31.54;99040.84;5033153;28;20057;-78
2022/07/15 11:30:47;;;;;;;5.75;2.47;;;;;;;27.91;31.19;99014.13;5032440;28;20415;-79
2022/07/15 11:33:17;;;;;;;6.88;2.47;;;;;;;28.12;28.48;99015.03;5033318;28;20057;-80
2022/07/15 11:35:54;;;;;;;;;;;;;;;28.03;29.82;99036.38;5031969;28;20061;-79
2022/07/15 11:38:24;;;;;;;6.90;2.10;;;;;;;27.79;30.00;99040.06;5032932;28;19948;-81
2022/07/15 11:46:29;;;;;;;3.53;2.20;;;;;;;27.35;31.88;99052.53;5033213;28;20637;-80
2022/07/15 11:48:58;;;;;;;3.45;2.08;;;;;;;27.48;31.89;99042.53;5032250;28;20430;-80
2022/07/15 11:51:30;;;;;;;2.83;2.35;;;;;;;27.46;31.74;99022.19;5031149;28;20111;-78
2022/07/15 11:53:58;;;;;;;3.63;2.35;;;;;;;27.26;31.90;99045.22;5032297;28;20049;-78
2022/07/15 11:56:25;;;;;;;3.95;2.13;;;;;;;27.06;32.03;99041.38;5032708;28;20115;-79
2022/07/15 11:58:55;;;;;;;3.47;2.28;;;;;;;26.80;31.78;99030.84;5030942;28;20467;-79
2022/07/15 12:01:30;;;;;;;3.58;2.50;;;;;;;26.94;32.07;99054.75;5032441;28;20423;-79